This is the latest recevied weather packets stored in our database for station/object DL7HMX-13. If no packets are shown the sender has not sent any weather packets the latest 10 day(s).
| Time | Temp. | Humidity | Pressure | Rain* | Wind** | Luminosity | Snow |
|---|---|---|---|---|---|---|---|
| 1777462821 | 16.11° C | 29% | 1021.9 hPa | 0 mm | - | 641 W/m² | - |
| 1777462223 | 16.67° C | 30% | 1021.9 hPa | 0 mm | - | 641 W/m² | - |
| 1777461628 | 16.11° C | 31% | 1021.9 hPa | 0 mm | - | 641 W/m² | - |
| 1777461030 | 15.56° C | 31% | 1022.1 hPa | 0 mm | - | 639 W/m² | - |
| 1777460416 | 15.56° C | 32% | 1022 hPa | 0 mm | - | 638 W/m² | - |
| 1777459819 | 15° C | 33% | 1022.2 hPa | 0 mm | - | 636 W/m² | - |
| 1777459222 | 15.56° C | 32% | 1022.2 hPa | 0 mm | - | 633 W/m² | - |
| 1777458625 | 14.44° C | 32% | 1022.3 hPa | 0 mm | - | 633 W/m² | - |
| 1777458027 | 15° C | 31% | 1022.2 hPa | 0 mm | - | 629 W/m² | - |
| 1777457430 | 15° C | 31% | 1022.3 hPa | 0 mm | - | 624 W/m² | - |
| 1777456818 | 15° C | 31% | 1022.3 hPa | 0 mm | - | 615 W/m² | - |
| 1777456220 | 15° C | 31% | 1022.3 hPa | 0 mm | - | 610 W/m² | - |
| 1777455623 | 15° C | 31% | 1022.2 hPa | 0 mm | - | 600 W/m² | - |
| 1777455025 | 14.44° C | 31% | 1022.3 hPa | 0 mm | - | 590 W/m² | - |
| 1777454427 | 14.44° C | 31% | 1022.3 hPa | 0 mm | - | 582 W/m² | - |
| 1777453831 | 14.44° C | 31% | 1022.3 hPa | 0 mm | - | 572 W/m² | - |
| 1777453217 | 13.89° C | 31% | 1022.3 hPa | 0 mm | - | 561 W/m² | - |
| 1777452620 | 14.44° C | 31% | 1022.2 hPa | 0 mm | - | 549 W/m² | - |
| 1777452022 | 14.44° C | 31% | 1022.2 hPa | 0 mm | - | 534 W/m² | - |
| 1777451425 | 13.89° C | 31% | 1022.2 hPa | 0 mm | - | 518 W/m² | - |
| 1777450829 | 14.44° C | 31% | 1022 hPa | 0 mm | - | 495 W/m² | - |
| 1777450232 | 13.89° C | 32% | 1022.1 hPa | 0 mm | - | 474 W/m² | - |
| 1777449617 | 13.33° C | 31% | 1022.1 hPa | 0 mm | - | 448 W/m² | - |
| 1777449020 | 13.33° C | 32% | 1022.1 hPa | 0 mm | - | 409 W/m² | - |
| 1777448423 | 13.33° C | 32% | 1022.1 hPa | 0 mm | - | 386 W/m² | - |
* Rain latest hour (hover to see other rain measurements)
** Current wind speed in m/s (hover to see current wind gust speed)